createdAt,value
2023-01-11T00:00:52.394Z,95876
2023-01-11T00:02:02.122Z,95873
2023-01-11T00:03:09.765Z,95874
2023-01-11T00:04:18.470Z,95871
2023-01-11T00:05:28.111Z,95872
2023-01-11T00:06:37.802Z,95864
2023-01-11T00:07:46.510Z,95867
2023-01-11T00:08:55.278Z,95867
2023-01-11T00:10:03.953Z,95862
2023-01-11T00:11:13.703Z,95860
2023-01-11T00:12:22.390Z,95859
2023-01-11T00:13:32.064Z,95858
2023-01-11T00:14:40.729Z,95861
2023-01-11T00:15:50.492Z,95858
2023-01-11T00:17:00.124Z,95854
2023-01-11T00:18:08.748Z,95859
2023-01-11T00:19:17.442Z,95857
2023-01-11T00:20:27.125Z,95857
2023-01-11T00:21:34.796Z,95856
2023-01-11T00:22:43.489Z,95850
2023-01-11T00:23:53.163Z,95856
2023-01-11T00:25:00.853Z,95853
2023-01-11T00:26:10.525Z,95848
2023-01-11T00:27:20.184Z,95842
2023-01-11T00:28:29.859Z,95841
2023-01-11T00:29:39.515Z,95839
2023-01-11T00:30:47.232Z,95834
2023-01-11T00:31:55.991Z,95830
2023-01-11T00:33:05.675Z,95828
2023-01-11T00:34:14.359Z,95827
2023-01-11T00:35:24.052Z,95827
2023-01-11T00:36:33.723Z,95825
2023-01-11T00:37:43.393Z,95829
2023-01-11T00:38:53.062Z,95828
2023-01-11T00:40:00.732Z,95826
2023-01-11T00:41:09.399Z,95822
2023-01-11T00:42:19.095Z,95824
2023-01-11T00:43:28.768Z,95825
2023-01-11T00:44:37.440Z,95823
2023-01-11T00:45:47.158Z,95823
2023-01-11T00:46:55.768Z,95819
2023-01-11T00:48:05.485Z,95823
2023-01-11T00:49:12.132Z,95818
2023-01-11T00:50:21.827Z,95814
2023-01-11T00:51:31.535Z,95816
2023-01-11T00:52:41.170Z,95817
2023-01-11T00:53:50.917Z,95809
2023-01-11T00:55:00.595Z,95810
2023-01-11T00:56:08.257Z,95805
2023-01-11T00:57:17.940Z,95810
2023-01-11T00:58:25.593Z,95809
2023-01-11T00:59:34.303Z,95803
2023-01-11T01:00:43.957Z,95805
2023-01-11T01:01:52.634Z,95807
2023-01-11T01:03:02.302Z,95807
2023-01-11T01:04:09.991Z,95811
2023-01-11T01:05:19.676Z,95802
2023-01-11T01:06:29.378Z,95809
2023-01-11T01:07:38.019Z,95809
2023-01-11T01:08:46.744Z,95810
2023-01-11T01:09:56.422Z,95811
2023-01-11T01:11:06.110Z,95812
2023-01-11T01:12:14.780Z,95817
2023-01-11T01:13:23.454Z,95818
2023-01-11T01:14:32.135Z,95811
2023-01-11T01:15:41.947Z,95816
2023-01-11T01:16:49.620Z,95820
2023-01-11T01:17:58.276Z,95816
2023-01-11T01:19:07.939Z,95823
2023-01-11T01:20:15.598Z,95823
2023-01-11T01:21:24.267Z,95825
2023-01-11T01:22:32.977Z,95828
2023-01-11T01:23:41.644Z,95828
2023-01-11T01:24:50.304Z,95826
2023-01-11T01:25:58.956Z,95825
2023-01-11T01:27:08.630Z,95824
2023-01-11T01:28:18.314Z,95828
2023-01-11T01:29:26.018Z,95823
2023-01-11T01:30:35.682Z,95827
2023-01-11T01:31:44.408Z,95826
2023-01-11T01:32:53.083Z,95824
2023-01-11T01:34:02.795Z,95820
2023-01-11T01:35:11.558Z,95821
2023-01-11T01:36:21.392Z,95821
2023-01-11T01:37:29.084Z,95824
2023-01-11T01:38:37.738Z,95826
2023-01-11T01:39:47.453Z,95825
2023-01-11T01:40:55.110Z,95834
2023-01-11T01:42:03.771Z,95827
2023-01-11T01:43:13.429Z,95831
2023-01-11T01:44:22.138Z,95829
2023-01-11T01:45:30.927Z,95828
2023-01-11T01:46:39.642Z,95828
2023-01-11T01:47:49.292Z,95825
2023-01-11T01:48:58.955Z,95817
2023-01-11T01:50:08.625Z,95823
2023-01-11T01:51:17.320Z,95817
2023-01-11T01:52:26.977Z,95815
2023-01-11T01:53:36.642Z,95811
2023-01-11T01:54:45.323Z,95808
2023-01-11T01:55:53.027Z,95814
2023-01-11T01:57:02.744Z,95809
2023-01-11T01:58:12.433Z,95810
2023-01-11T01:59:22.055Z,95811
2023-01-11T02:00:31.861Z,95808
2023-01-11T02:01:41.567Z,95811
2023-01-11T02:02:51.320Z,95805
2023-01-11T02:04:00.895Z,95806
2023-01-11T02:05:09.568Z,95795
2023-01-11T02:06:19.262Z,95799
2023-01-11T02:07:28.930Z,95798
2023-01-11T02:08:37.611Z,95795
2023-01-11T02:09:47.279Z,95794
2023-01-11T02:10:56.964Z,95793
2023-01-11T02:12:05.608Z,95796
2023-01-11T02:13:15.289Z,95792
2023-01-11T02:14:22.998Z,95796
2023-01-11T02:15:32.692Z,95796
2023-01-11T02:16:42.337Z,95798
2023-01-11T02:17:50.002Z,95806
2023-01-11T02:18:58.686Z,95793
2023-01-11T02:20:08.363Z,95790
2023-01-11T02:21:17.065Z,95788
2023-01-11T02:22:26.737Z,95791
2023-01-11T02:23:35.395Z,95789
2023-01-11T02:24:44.077Z,95785
2023-01-11T02:25:53.771Z,95790
2023-01-11T02:27:02.513Z,95787
2023-01-11T02:28:11.183Z,95788
2023-01-11T02:29:20.866Z,95785
2023-01-11T02:30:30.526Z,95788
2023-01-11T02:31:40.295Z,95781
2023-01-11T02:32:48.892Z,95784
2023-01-11T02:33:57.573Z,95782
2023-01-11T02:35:07.232Z,95776
2023-01-11T02:36:14.901Z,95776
2023-01-11T02:37:23.581Z,95777
2023-01-11T02:38:32.265Z,95777
2023-01-11T02:39:41.938Z,95774
2023-01-11T02:40:51.699Z,95772
2023-01-11T02:41:59.411Z,95774
2023-01-11T02:43:08.149Z,95767
2023-01-11T02:44:17.820Z,95768
2023-01-11T02:45:26.493Z,95762
2023-01-11T02:46:35.170Z,95768
2023-01-11T02:47:43.829Z,95757
2023-01-11T02:48:53.536Z,95760
2023-01-11T02:50:03.207Z,95763
2023-01-11T02:51:10.898Z,95761
2023-01-11T02:52:19.557Z,95757
2023-01-11T02:53:29.239Z,95760
2023-01-11T02:54:37.927Z,95757
2023-01-11T02:55:47.601Z,95759
2023-01-11T02:56:57.283Z,95762
2023-01-11T02:58:06.930Z,95757
2023-01-11T02:59:16.638Z,95759
2023-01-11T03:00:25.321Z,95753
2023-01-11T03:01:34.988Z,95751
2023-01-11T03:02:44.692Z,95751
2023-01-11T03:03:53.277Z,95748
2023-01-11T03:05:01.927Z,95752
2023-01-11T03:06:11.608Z,95752
2023-01-11T03:07:21.255Z,95743
2023-01-11T03:08:30.921Z,95737
2023-01-11T03:09:39.590Z,95739
2023-01-11T03:10:48.227Z,95731
2023-01-11T03:11:57.909Z,95728
2023-01-11T03:13:04.548Z,95731
2023-01-11T03:14:12.217Z,95729
2023-01-11T03:15:21.898Z,95723
2023-01-11T03:16:30.596Z,95729
2023-01-11T03:17:40.205Z,95723
2023-01-11T03:18:47.848Z,95721
2023-01-11T03:19:56.495Z,95724
2023-01-11T03:21:06.149Z,95719
2023-01-11T03:22:14.804Z,95717
2023-01-11T03:23:23.466Z,95718
2023-01-11T03:24:32.133Z,95717
2023-01-11T03:25:41.779Z,95712
2023-01-11T03:26:51.444Z,95718
2023-01-11T03:28:00.115Z,95713
2023-01-11T03:29:07.796Z,95714
2023-01-11T03:30:17.453Z,95713
2023-01-11T03:31:26.151Z,95709
2023-01-11T03:32:35.771Z,95707
2023-01-11T03:33:44.435Z,95709
2023-01-11T03:34:53.117Z,95706
2023-01-11T03:36:01.779Z,95705
2023-01-11T03:37:10.460Z,95700
2023-01-11T03:38:20.114Z,95699
2023-01-11T03:39:27.769Z,95699
2023-01-11T03:40:37.479Z,95699
2023-01-11T03:41:47.151Z,95700
2023-01-11T03:42:55.799Z,95694
2023-01-11T03:44:04.458Z,95696
2023-01-11T03:45:14.149Z,95694
2023-01-11T03:46:22.919Z,95693
2023-01-11T03:47:31.527Z,95693
2023-01-11T03:48:40.169Z,95685
2023-01-11T03:49:49.833Z,95686
2023-01-11T03:50:59.468Z,95684
2023-01-11T03:52:09.200Z,95677
2023-01-11T03:53:17.850Z,95678
2023-01-11T03:54:26.497Z,95674
2023-01-11T03:55:35.157Z,95674
2023-01-11T03:56:44.894Z,95675
2023-01-11T03:57:54.571Z,95675
2023-01-11T03:59:04.235Z,95672
2023-01-11T04:00:13.931Z,95677
2023-01-11T04:01:21.570Z,95675
2023-01-11T04:02:30.231Z,95676
2023-01-11T04:03:39.985Z,95675
2023-01-11T04:04:48.625Z,95671
2023-01-11T04:05:58.282Z,95677
2023-01-11T04:07:05.968Z,95670
2023-01-11T04:08:14.630Z,95670
2023-01-11T04:09:24.334Z,95671
2023-01-11T04:10:31.982Z,95664
2023-01-11T04:11:40.637Z,95667
2023-01-11T04:12:50.333Z,95669
2023-01-11T04:13:58.995Z,95662
2023-01-11T04:15:08.730Z,95662
2023-01-11T04:16:17.386Z,95665
2023-01-11T04:17:26.073Z,95664
2023-01-11T04:18:35.774Z,95664
2023-01-11T04:19:44.520Z,95669
2023-01-11T04:20:54.170Z,95664
2023-01-11T04:22:02.856Z,95666
2023-01-11T04:23:11.498Z,95664
2023-01-11T04:24:21.178Z,95661
2023-01-11T04:25:28.829Z,95664
2023-01-11T04:26:37.511Z,95661
2023-01-11T04:27:47.168Z,95666
2023-01-11T04:28:54.819Z,95662
2023-01-11T04:30:03.478Z,95662
2023-01-11T04:31:13.213Z,95664
2023-01-11T04:32:21.847Z,95659
2023-01-11T04:33:31.504Z,95661
2023-01-11T04:34:39.184Z,95662
2023-01-11T04:35:47.882Z,95658
2023-01-11T04:36:57.557Z,95660
2023-01-11T04:38:06.216Z,95659
2023-01-11T04:39:14.865Z,95658
2023-01-11T04:40:23.532Z,95659
2023-01-11T04:41:32.180Z,95659
2023-01-11T04:42:41.860Z,95654
2023-01-11T04:43:50.520Z,95651
2023-01-11T04:45:00.183Z,95650
2023-01-11T04:46:09.904Z,95654
2023-01-11T04:47:18.506Z,95650
2023-01-11T04:48:28.165Z,95651
2023-01-11T04:49:37.901Z,95649
2023-01-11T04:50:47.581Z,95644
2023-01-11T04:51:57.267Z,95645
2023-01-11T04:53:06.989Z,95645
2023-01-11T04:54:16.631Z,95651
2023-01-11T04:55:26.329Z,95651
2023-01-11T04:56:33.990Z,95653
2023-01-11T04:57:43.656Z,95646
2023-01-11T04:58:52.357Z,95645
2023-01-11T05:00:01.997Z,95645
2023-01-11T05:01:11.801Z,95647
2023-01-11T05:02:19.350Z,95644
2023-01-11T05:03:27.992Z,95641
2023-01-11T05:04:37.666Z,95643
2023-01-11T05:05:47.305Z,95641
2023-01-11T05:06:56.093Z,95638
2023-01-11T05:08:04.912Z,95640
2023-01-11T05:09:13.636Z,95636
2023-01-11T05:10:23.373Z,95628
2023-01-11T05:11:32.033Z,95631
2023-01-11T05:12:40.749Z,95623
2023-01-11T05:13:50.415Z,95619
2023-01-11T05:14:58.073Z,95622
2023-01-11T05:16:06.805Z,95618
2023-01-11T05:17:16.397Z,95620
2023-01-11T05:18:25.155Z,95621
2023-01-11T05:19:34.811Z,95614
2023-01-11T05:20:42.495Z,95624
2023-01-11T05:21:51.145Z,95623
2023-01-11T05:23:00.886Z,95622
2023-01-11T05:24:08.537Z,95621
2023-01-11T05:25:17.254Z,95613
2023-01-11T05:26:27.021Z,95617
2023-01-11T05:27:37.100Z,95618
2023-01-11T05:28:46.770Z,95614
2023-01-11T05:29:55.668Z,95617
2023-01-11T05:31:05.314Z,95615
2023-01-11T05:32:13.997Z,95614
2023-01-11T05:33:22.631Z,95614
2023-01-11T05:34:32.295Z,95612
2023-01-11T05:35:39.968Z,95612
2023-01-11T05:36:48.610Z,95610
2023-01-11T05:37:57.340Z,95608
2023-01-11T05:39:05.996Z,95606
2023-01-11T05:40:15.878Z,95613
2023-01-11T05:41:25.532Z,95608
2023-01-11T05:42:35.641Z,95603
2023-01-11T05:43:45.387Z,95608
2023-01-11T05:44:55.375Z,95611
2023-01-11T05:46:11.061Z,95607
2023-01-11T05:47:21.969Z,95612
2023-01-11T05:48:31.044Z,95611
2023-01-11T05:49:40.117Z,95615
2023-01-11T05:50:50.068Z,95609
2023-01-11T05:51:59.861Z,95614
2023-01-11T05:53:09.588Z,95610
2023-01-11T05:54:18.372Z,95611
2023-01-11T05:55:27.185Z,95612
2023-01-11T05:56:36.951Z,95618
2023-01-11T05:57:45.767Z,95617
2023-01-11T05:58:55.803Z,95613
2023-01-11T06:00:05.741Z,95610
2023-01-11T06:01:13.715Z,95612
2023-01-11T06:02:22.530Z,95617
2023-01-11T06:03:31.145Z,95615
2023-01-11T06:04:40.948Z,95621
2023-01-11T06:05:50.721Z,95618
2023-01-11T06:06:59.485Z,95623
2023-01-11T06:08:09.175Z,95615
2023-01-11T06:09:19.104Z,95623
2023-01-11T06:10:27.827Z,95621
2023-01-11T06:11:36.532Z,95621
2023-01-11T06:12:46.258Z,95623
2023-01-11T06:13:55.980Z,95619
2023-01-11T06:15:05.683Z,95621
2023-01-11T06:16:13.429Z,95621
2023-01-11T06:17:22.179Z,95616
2023-01-11T06:18:31.969Z,95614
2023-01-11T06:19:39.633Z,95617
2023-01-11T06:20:48.366Z,95612
2023-01-11T06:21:58.157Z,95616
2023-01-11T06:23:06.889Z,95614
2023-01-11T06:24:16.584Z,95615
2023-01-11T06:25:25.283Z,95611
2023-01-11T06:26:35.055Z,95612
2023-01-11T06:27:44.834Z,95614
2023-01-11T06:28:53.497Z,95608
2023-01-11T06:30:03.228Z,95606
2023-01-11T06:31:14.289Z,95609
2023-01-11T06:32:22.679Z,95610
2023-01-11T06:33:32.480Z,95611
2023-01-11T06:34:41.192Z,95608
2023-01-11T06:35:50.918Z,95604
2023-01-11T06:37:00.600Z,95607
2023-01-11T06:38:09.313Z,95607
2023-01-11T06:39:19.131Z,95603
2023-01-11T06:40:27.857Z,95604
2023-01-11T06:41:37.560Z,95604
2023-01-11T06:42:47.260Z,95606
2023-01-11T06:43:55.936Z,95603
2023-01-11T06:45:05.657Z,95605
2023-01-11T06:46:16.399Z,95597
2023-01-11T06:47:25.026Z,95608
2023-01-11T06:48:33.719Z,95603
2023-01-11T06:49:42.452Z,95610
2023-01-11T06:50:52.272Z,95605
2023-01-11T06:52:01.941Z,95606
2023-01-11T06:53:10.617Z,95608
2023-01-11T06:54:19.309Z,95608
2023-01-11T06:55:27.990Z,95607
2023-01-11T06:56:35.693Z,95611
2023-01-11T06:57:45.454Z,95615
2023-01-11T06:58:54.224Z,95619
2023-01-11T07:00:02.900Z,95619
2023-01-11T07:01:12.616Z,95620
2023-01-11T07:02:21.342Z,95618
2023-01-11T07:03:30.032Z,95622
2023-01-11T07:04:39.698Z,95622
2023-01-11T07:05:48.408Z,95625
2023-01-11T07:06:57.096Z,95626
2023-01-11T07:08:06.798Z,95622
2023-01-11T07:09:15.526Z,95624
2023-01-11T07:10:25.184Z,95620
2023-01-11T07:11:33.862Z,95624
2023-01-11T07:12:43.532Z,95621
2023-01-11T07:13:53.273Z,95614
2023-01-11T07:15:01.949Z,95614
2023-01-11T07:16:10.688Z,95613
2023-01-11T07:17:20.303Z,95614
2023-01-11T07:18:29.964Z,95613
2023-01-11T07:19:39.679Z,95612
2023-01-11T07:20:48.327Z,95619
2023-01-11T07:21:56.992Z,95612
2023-01-11T07:23:06.675Z,95615
2023-01-11T07:24:15.353Z,95614
2023-01-11T07:25:24.094Z,95613
2023-01-11T07:26:32.762Z,95612
2023-01-11T07:27:41.439Z,95616
2023-01-11T07:28:50.123Z,95611
2023-01-11T07:29:58.795Z,95617
2023-01-11T07:31:08.668Z,95617
2023-01-11T07:32:17.263Z,95613
2023-01-11T07:33:26.943Z,95613
2023-01-11T07:34:36.622Z,95611
2023-01-11T07:35:45.472Z,95613
2023-01-11T07:36:54.234Z,95613
2023-01-11T07:38:03.917Z,95613
2023-01-11T07:39:12.736Z,95611
2023-01-11T07:40:22.419Z,95615
2023-01-11T07:41:31.106Z,95615
2023-01-11T07:42:41.793Z,95612
2023-01-11T07:43:51.485Z,95614
2023-01-11T07:45:01.163Z,95616
2023-01-11T07:46:10.900Z,95615
2023-01-11T07:47:20.567Z,95612
2023-01-11T07:48:30.253Z,95615
2023-01-11T07:49:39.930Z,95616
2023-01-11T07:50:47.593Z,95615
2023-01-11T07:51:56.262Z,95616
2023-01-11T07:53:05.936Z,95617
2023-01-11T07:54:14.733Z,95618
2023-01-11T07:55:23.429Z,95615
2023-01-11T07:56:33.097Z,95620
2023-01-11T07:57:41.764Z,95617
2023-01-11T07:58:51.426Z,95618
2023-01-11T07:59:59.127Z,95616
2023-01-11T08:01:07.764Z,95614
2023-01-11T08:02:17.498Z,95615
2023-01-11T08:03:27.282Z,95615
2023-01-11T08:04:36.816Z,95613
2023-01-11T08:05:46.599Z,95613
2023-01-11T08:06:56.268Z,95611
2023-01-11T08:08:05.978Z,95618
2023-01-11T08:09:15.631Z,95618
2023-01-11T08:10:25.284Z,95615
2023-01-11T08:11:34.977Z,95611
2023-01-11T08:12:44.647Z,95613
2023-01-11T08:13:53.305Z,95612
2023-01-11T08:15:01.973Z,95610
2023-01-11T08:16:11.679Z,95610
2023-01-11T08:17:21.344Z,95605
2023-01-11T08:18:29.017Z,95607
2023-01-11T08:19:38.723Z,95601
2023-01-11T08:20:48.387Z,95603
2023-01-11T08:21:57.105Z,95600
2023-01-11T08:23:06.837Z,95602
2023-01-11T08:24:16.493Z,95594
2023-01-11T08:25:25.175Z,95598
2023-01-11T08:26:34.825Z,95597
2023-01-11T08:27:42.502Z,95598
2023-01-11T08:28:51.207Z,95600
2023-01-11T08:30:00.865Z,95590
2023-01-11T08:31:09.633Z,95591
2023-01-11T08:32:18.176Z,95595
2023-01-11T08:33:27.851Z,95596
2023-01-11T08:34:36.530Z,95594
2023-01-11T08:35:47.219Z,95593
2023-01-11T08:36:56.865Z,95589
2023-01-11T08:38:06.547Z,95588
2023-01-11T08:39:16.229Z,95582
2023-01-11T08:40:24.900Z,95585
2023-01-11T08:41:33.582Z,95582
2023-01-11T08:42:42.292Z,95582
2023-01-11T08:43:51.966Z,95584
2023-01-11T08:45:01.629Z,95582
2023-01-11T08:46:09.377Z,95582
2023-01-11T08:47:18.017Z,95583
2023-01-11T08:48:27.684Z,95581
2023-01-11T08:49:35.350Z,95581
2023-01-11T08:50:44.060Z,95575
2023-01-11T08:51:52.872Z,95579
2023-01-11T08:53:02.495Z,95581
2023-01-11T08:54:13.150Z,95574
2023-01-11T08:55:21.845Z,95574
2023-01-11T08:56:30.513Z,95575
2023-01-11T08:57:40.274Z,95574
2023-01-11T08:58:48.947Z,95568
2023-01-11T08:59:58.631Z,95571
2023-01-11T09:01:07.324Z,95565
2023-01-11T09:02:15.052Z,95563
2023-01-11T09:03:23.786Z,95564
2023-01-11T09:04:32.443Z,95563
2023-01-11T09:05:41.129Z,95567
2023-01-11T09:06:51.813Z,95560
2023-01-11T09:08:00.539Z,95563
2023-01-11T09:09:09.231Z,95561
2023-01-11T09:10:17.894Z,95560
2023-01-11T09:11:27.567Z,95560
2023-01-11T09:12:37.278Z,95555
2023-01-11T09:13:45.980Z,95553
2023-01-11T09:14:54.659Z,95558
2023-01-11T09:16:04.392Z,95558
2023-01-11T09:17:12.990Z,95557
2023-01-11T09:18:21.693Z,95556
2023-01-11T09:19:31.357Z,95561
2023-01-11T09:20:40.075Z,95558
2023-01-11T09:21:49.749Z,95560
2023-01-11T09:22:58.418Z,95559
2023-01-11T09:24:08.190Z,95557
2023-01-11T09:25:17.799Z,95557
2023-01-11T09:26:26.522Z,95559
2023-01-11T09:27:35.179Z,95555
2023-01-11T09:28:44.937Z,95559
2023-01-11T09:29:53.613Z,95560
2023-01-11T09:31:02.316Z,95561
2023-01-11T09:32:12.009Z,95553
2023-01-11T09:33:20.731Z,95556
2023-01-11T09:34:30.474Z,95555
2023-01-11T09:35:38.098Z,95559
2023-01-11T09:36:46.780Z,95554
2023-01-11T09:37:56.504Z,95551
2023-01-11T09:39:05.195Z,95558
2023-01-11T09:40:14.913Z,95555
2023-01-11T09:41:24.613Z,95553
2023-01-11T09:42:34.291Z,95552
2023-01-11T09:43:43.985Z,95553
2023-01-11T09:44:53.639Z,95550
2023-01-11T09:46:02.316Z,95547
2023-01-11T09:47:11.983Z,95547
2023-01-11T09:48:20.666Z,95550
2023-01-11T09:49:30.410Z,95547
2023-01-11T09:50:39.053Z,95545
2023-01-11T09:51:48.779Z,95545
2023-01-11T09:52:58.477Z,95542
2023-01-11T09:54:06.245Z,95541
2023-01-11T09:55:14.918Z,95544
2023-01-11T09:56:24.622Z,95540
2023-01-11T09:57:34.355Z,95542
2023-01-11T09:58:43.217Z,95539
2023-01-11T09:59:50.901Z,95538
2023-01-11T10:01:01.401Z,95536
2023-01-11T10:02:10.463Z,95537
2023-01-11T10:03:23.222Z,95545
2023-01-11T10:04:33.135Z,95542
2023-01-11T10:05:40.662Z,95542
2023-01-11T10:06:50.384Z,95536
2023-01-11T10:18:24.123Z,95552
2023-01-11T10:18:25.279Z,95546
2023-01-11T10:18:34.853Z,95547
2023-01-11T10:18:53.297Z,95539
2023-01-11T10:19:44.871Z,95543
2023-01-11T10:20:54.417Z,95546
2023-01-11T10:22:03.087Z,95546
2023-01-11T10:23:12.763Z,95545
2023-01-11T10:24:21.487Z,95542
2023-01-11T10:25:31.200Z,95543
2023-01-11T10:26:40.952Z,95547
2023-01-11T10:27:50.630Z,95545
2023-01-11T10:28:59.404Z,95541
2023-01-11T10:30:09.076Z,95541
2023-01-11T10:31:17.834Z,95539
2023-01-11T10:32:27.483Z,95543
2023-01-11T10:33:36.200Z,95540
2023-01-11T10:34:43.956Z,95542
2023-01-11T10:35:53.687Z,95541
2023-01-11T10:37:02.436Z,95541
2023-01-11T10:38:11.146Z,95538
2023-01-11T10:39:20.820Z,95537
2023-01-11T10:40:29.550Z,95540
2023-01-11T10:41:39.955Z,95543
2023-01-11T10:42:49.055Z,95538
2023-01-11T10:43:58.774Z,95538
2023-01-11T10:45:08.473Z,95538
2023-01-11T10:46:17.182Z,95533
2023-01-11T10:47:25.894Z,95539
2023-01-11T10:48:35.788Z,95537
2023-01-11T10:49:44.681Z,95540
2023-01-11T10:50:54.404Z,95531
2023-01-11T10:52:03.181Z,95534
2023-01-11T10:53:11.900Z,95533
2023-01-11T10:54:21.545Z,95530
2023-01-11T10:55:30.239Z,95531
2023-01-11T10:56:42.655Z,95525
2023-01-11T10:57:59.594Z,95523
2023-01-11T10:59:00.331Z,95527
2023-01-11T11:00:10.093Z,95524
2023-01-11T11:01:18.887Z,95519
2023-01-11T11:02:28.625Z,95518
2023-01-11T11:03:38.193Z,95516
2023-01-11T11:04:45.977Z,95516
2023-01-11T11:05:55.705Z,95516
2023-01-11T11:07:05.412Z,95514
2023-01-11T11:08:15.104Z,95508
2023-01-11T11:09:24.820Z,95509
2023-01-11T11:10:32.539Z,95506
2023-01-11T11:11:42.257Z,95504
2023-01-11T11:12:51.941Z,95501
2023-01-11T11:13:59.632Z,95497
2023-01-11T11:15:09.327Z,95505
2023-01-11T11:16:19.090Z,95500
2023-01-11T11:17:27.677Z,95499
2023-01-11T11:18:37.425Z,95500
2023-01-11T11:19:46.092Z,95502
2023-01-11T11:20:54.798Z,95492
2023-01-11T11:22:04.537Z,95491
2023-01-11T11:23:13.216Z,95489
2023-01-11T11:24:21.893Z,95486
2023-01-11T11:25:31.593Z,95488
2023-01-11T11:26:40.367Z,95486
2023-01-11T11:27:49.084Z,95487
2023-01-11T11:28:57.765Z,95485
2023-01-11T11:30:07.521Z,95484
2023-01-11T11:31:17.267Z,95482
2023-01-11T11:32:24.949Z,95482
2023-01-11T11:33:33.659Z,95482
2023-01-11T11:34:43.346Z,95480
2023-01-11T11:35:52.019Z,95477
2023-01-11T11:37:01.752Z,95478
2023-01-11T11:38:09.441Z,95476
2023-01-11T11:39:19.179Z,95476
2023-01-11T11:40:28.851Z,95470
2023-01-11T11:41:37.563Z,95470
2023-01-11T11:42:47.288Z,95473
2023-01-11T11:43:55.996Z,95467
2023-01-11T11:45:04.707Z,95470
2023-01-11T11:46:21.547Z,95468
2023-01-11T11:47:31.145Z,95471
2023-01-11T11:48:38.806Z,95460
2023-01-11T11:49:48.466Z,95461
2023-01-11T11:50:57.191Z,95458
2023-01-11T11:52:05.854Z,95463
2023-01-11T11:53:14.558Z,95452
2023-01-11T11:54:23.287Z,95454
2023-01-11T11:55:31.913Z,95454
2023-01-11T11:56:41.588Z,95449
2023-01-11T11:57:51.262Z,95448
2023-01-11T11:59:00.924Z,95448
2023-01-11T12:00:09.571Z,95441
2023-01-11T12:01:19.251Z,95439
2023-01-11T12:02:29.090Z,95439
2023-01-11T12:03:38.603Z,95437
2023-01-11T12:04:48.368Z,95439
2023-01-11T12:05:57.980Z,95435
2023-01-11T12:07:06.658Z,95435
2023-01-11T12:08:16.359Z,95431
2023-01-11T12:09:24.072Z,95430
2023-01-11T12:10:32.715Z,95430
2023-01-11T12:11:41.371Z,95432
2023-01-11T12:12:50.043Z,95428
2023-01-11T12:13:59.732Z,95439
2023-01-11T12:15:07.390Z,95435
2023-01-11T12:16:16.097Z,95438
2023-01-11T12:17:25.763Z,95433
2023-01-11T12:18:35.456Z,95439
2023-01-11T12:19:45.181Z,95439
2023-01-11T12:20:53.805Z,95433
2023-01-11T12:22:03.453Z,95434
2023-01-11T12:23:13.118Z,95432
2023-01-11T12:24:21.860Z,95438
2023-01-11T12:25:30.441Z,95435
2023-01-11T12:26:40.294Z,95435
2023-01-11T12:27:49.879Z,95438
2023-01-11T12:28:58.549Z,95437
2023-01-11T12:30:07.215Z,95437
2023-01-11T12:31:15.919Z,95434
2023-01-11T12:32:25.554Z,95438
2023-01-11T12:33:34.208Z,95435
2023-01-11T12:34:43.883Z,95434
2023-01-11T12:35:53.532Z,95429
2023-01-11T12:37:01.215Z,95424
2023-01-11T12:38:10.904Z,95423
2023-01-11T12:39:19.555Z,95423
2023-01-11T12:40:28.260Z,95425
2023-01-11T12:41:37.932Z,95421
2023-01-11T12:42:45.614Z,95421
2023-01-11T12:43:55.287Z,95414
2023-01-11T12:45:05.274Z,95419
2023-01-11T12:46:13.398Z,95418
2023-01-11T12:47:22.251Z,95413
2023-01-11T12:48:31.526Z,95409
2023-01-11T12:49:41.259Z,95417
2023-01-11T12:50:51.011Z,95408
2023-01-11T12:52:01.090Z,95412
2023-01-11T12:53:09.983Z,95407
2023-01-11T12:54:18.898Z,95411
2023-01-11T12:55:26.665Z,95408
2023-01-11T12:56:35.379Z,95407
2023-01-11T12:57:45.058Z,95409
2023-01-11T12:58:54.717Z,95408
2023-01-11T13:00:04.408Z,95406
2023-01-11T13:01:13.190Z,95410
2023-01-11T13:02:22.952Z,95405
2023-01-11T13:03:32.552Z,95403
2023-01-11T13:04:41.215Z,95406
2023-01-11T13:05:49.868Z,95402
2023-01-11T13:06:58.691Z,95404
2023-01-11T13:08:08.370Z,95401
2023-01-11T13:09:18.064Z,95403
2023-01-11T13:10:26.713Z,95400
2023-01-11T13:11:36.561Z,95397
2023-01-11T13:12:46.344Z,95398
2023-01-11T13:13:54.147Z,95398
2023-01-11T13:15:04.114Z,95397
2023-01-11T13:16:13.958Z,95389
2023-01-11T13:17:23.720Z,95395
2023-01-11T13:18:33.403Z,95389
2023-01-11T13:19:43.120Z,95389
2023-01-11T13:21:01.009Z,95388
2023-01-11T13:22:03.564Z,95390
2023-01-11T13:23:13.260Z,95390
2023-01-11T13:24:21.938Z,95383
2023-01-11T13:25:30.635Z,95387
2023-01-11T13:26:39.343Z,95384
2023-01-11T13:27:49.057Z,95381
2023-01-11T13:28:57.731Z,95383
2023-01-11T13:30:07.400Z,95382
2023-01-11T13:31:17.128Z,95383
2023-01-11T13:32:24.794Z,95386
2023-01-11T13:33:34.439Z,95388
2023-01-11T13:34:43.144Z,95384
2023-01-11T13:35:52.696Z,95384
2023-01-11T13:37:02.447Z,95390
2023-01-11T13:38:12.206Z,95394
2023-01-11T13:39:22.028Z,95391
2023-01-11T13:40:31.787Z,95396
2023-01-11T13:41:40.505Z,95395
2023-01-11T13:42:49.231Z,95397
2023-01-11T13:43:58.946Z,95397
2023-01-11T13:45:08.649Z,95398
2023-01-11T13:46:18.369Z,95402
2023-01-11T13:47:26.157Z,95396
2023-01-11T13:48:34.822Z,95397
2023-01-11T13:49:44.530Z,95402
2023-01-11T13:50:54.249Z,95405
2023-01-11T13:52:03.032Z,95404
2023-01-11T13:53:12.741Z,95401
2023-01-11T13:54:21.426Z,95399
2023-01-11T13:55:31.061Z,95404
2023-01-11T13:56:40.744Z,95403
2023-01-11T13:57:50.525Z,95405
2023-01-11T13:59:00.240Z,95407
2023-01-11T14:00:09.967Z,95404
2023-01-11T14:01:19.750Z,95407
2023-01-11T14:02:29.441Z,95404
2023-01-11T14:03:40.263Z,95408
2023-01-11T14:04:49.951Z,95410
2023-01-11T14:05:59.767Z,95406
2023-01-11T14:07:09.560Z,95406
2023-01-11T14:08:18.310Z,95410
2023-01-11T14:09:28.126Z,95411
2023-01-11T14:10:37.811Z,95416
2023-01-11T14:11:47.544Z,95420
2023-01-11T14:12:57.285Z,95420
2023-01-11T14:14:07.026Z,95425
2023-01-11T14:15:16.763Z,95424
2023-01-11T14:16:26.489Z,95422
2023-01-11T14:17:35.225Z,95421
2023-01-11T14:18:44.967Z,95428
2023-01-11T14:19:54.695Z,95418
2023-01-11T14:21:04.449Z,95426
2023-01-11T14:22:13.149Z,95425
2023-01-11T14:23:22.941Z,95413
2023-01-11T14:24:32.751Z,95431
2023-01-11T14:25:42.459Z,95424
2023-01-11T14:26:51.313Z,95427
2023-01-11T14:28:01.160Z,95430
2023-01-11T14:29:10.887Z,95433
2023-01-11T14:30:20.655Z,95432
2023-01-11T14:31:30.483Z,95439
2023-01-11T14:32:40.140Z,95435
2023-01-11T14:33:49.876Z,95445
2023-01-11T14:34:59.602Z,95442
2023-01-11T14:36:09.262Z,95429
2023-01-11T14:37:18.938Z,95451
2023-01-11T14:38:28.621Z,95446
2023-01-11T14:39:37.327Z,95446
2023-01-11T14:40:47.077Z,95456
2023-01-11T14:41:56.836Z,95453
2023-01-11T14:43:06.589Z,95445
2023-01-11T14:44:16.377Z,95457
2023-01-11T14:45:26.164Z,95453
2023-01-11T14:46:34.962Z,95442
2023-01-11T14:47:44.632Z,95454
2023-01-11T14:48:54.362Z,95447
2023-01-11T14:50:04.141Z,95449
2023-01-11T14:51:13.896Z,95443
2023-01-11T14:52:38.416Z,95451
2023-01-11T14:53:35.381Z,95481
2023-01-11T14:54:45.167Z,95449
2023-01-11T14:55:54.888Z,95450
2023-01-11T14:57:04.655Z,95450
2023-01-11T14:58:13.417Z,95448